createdAt,value
2019-02-22T00:02:25.857Z,32.10
2019-02-22T00:04:59.161Z,33.50
2019-02-22T00:07:32.470Z,34.00
2019-02-22T00:10:06.689Z,34.47
2019-02-22T00:12:39.997Z,33.57
2019-02-22T00:15:13.270Z,33.47
2019-02-22T00:17:46.582Z,34.10
2019-02-22T00:20:19.865Z,34.33
2019-02-22T00:22:53.182Z,34.17
2019-02-22T00:25:26.473Z,34.20
2019-02-22T00:28:00.282Z,34.83
2019-02-22T00:30:33.620Z,34.47
2019-02-22T00:33:06.955Z,34.87
2019-02-22T00:35:40.285Z,35.73
2019-02-22T00:38:13.526Z,35.77
2019-02-22T00:40:46.803Z,33.73
2019-02-22T00:43:20.117Z,36.03
2019-02-22T00:45:53.383Z,35.07
2019-02-22T00:48:26.681Z,34.73
2019-02-22T00:51:00.007Z,34.83
2019-02-22T00:53:33.279Z,34.47
2019-02-22T00:56:06.565Z,31.43
2019-02-22T00:58:39.855Z,35.37
2019-02-22T01:01:13.132Z,31.80
2019-02-22T01:03:46.437Z,32.20
2019-02-22T01:06:19.727Z,33.20
2019-02-22T01:08:52.997Z,32.40
2019-02-22T01:11:26.284Z,33.40
2019-02-22T01:13:59.595Z,34.80
2019-02-22T01:16:32.862Z,33.83
2019-02-22T01:19:06.150Z,32.43
2019-02-22T01:21:39.425Z,33.37
2019-02-22T01:24:12.722Z,29.27
2019-02-22T01:26:46.002Z,32.80
2019-02-22T01:29:19.316Z,33.50
2019-02-22T01:31:52.582Z,31.00
2019-02-22T01:34:25.907Z,32.20
2019-02-22T01:36:59.170Z,32.07
2019-02-22T01:39:32.466Z,31.80
2019-02-22T01:42:05.749Z,32.50
2019-02-22T01:44:39.029Z,32.97
2019-02-22T01:47:12.316Z,35.00
2019-02-22T01:49:45.612Z,34.43
2019-02-22T01:52:18.909Z,36.20
2019-02-22T01:54:52.223Z,34.90
2019-02-22T01:57:25.503Z,35.37
2019-02-22T01:59:58.804Z,36.07
2019-02-22T02:02:32.072Z,35.70
2019-02-22T02:05:05.437Z,34.03
2019-02-22T02:07:38.729Z,34.53
2019-02-22T02:10:12.080Z,28.47
2019-02-22T02:12:45.363Z,32.90
2019-02-22T02:15:18.732Z,33.07
2019-02-22T02:17:52.015Z,32.80
2019-02-22T02:20:25.333Z,31.77
2019-02-22T02:22:58.606Z,33.00
2019-02-22T02:25:31.898Z,33.47
2019-02-22T02:28:07.863Z,33.10
2019-02-22T02:30:41.230Z,31.97
2019-02-22T02:33:14.437Z,32.20
2019-02-22T02:35:47.721Z,32.10
2019-02-22T02:38:20.981Z,32.40
2019-02-22T02:41:06.834Z,33.00
2019-02-22T02:43:29.298Z,31.97
2019-02-22T02:46:02.606Z,32.80
2019-02-22T02:48:35.883Z,32.40
2019-02-22T02:51:09.169Z,31.03
2019-02-22T02:53:42.454Z,31.73
2019-02-22T02:56:17.444Z,30.87
2019-02-22T02:58:50.736Z,30.23
2019-02-22T03:01:24.027Z,31.70
2019-02-22T03:03:57.321Z,29.67
2019-02-22T03:06:34.700Z,29.67
2019-02-22T03:09:09.619Z,30.10
2019-02-22T03:11:42.921Z,30.10
2019-02-22T03:14:16.202Z,29.03
2019-02-22T03:16:49.515Z,29.77
2019-02-22T03:19:22.801Z,30.53
2019-02-22T03:21:56.109Z,28.83
2019-02-22T03:24:29.378Z,28.97
2019-02-22T03:27:02.749Z,29.43
2019-02-22T03:29:36.025Z,29.50
2019-02-22T03:32:09.318Z,29.83
2019-02-22T03:34:42.602Z,30.67
2019-02-22T03:37:15.908Z,30.13
2019-02-22T03:39:49.199Z,29.60
2019-02-22T03:42:22.512Z,29.70
2019-02-22T03:44:55.855Z,31.00
2019-02-22T03:47:29.142Z,30.30
2019-02-22T03:50:02.435Z,32.03
2019-02-22T03:52:47.620Z,30.73
2019-02-22T03:55:20.889Z,30.93
2019-02-22T03:57:54.186Z,28.77
2019-02-22T04:00:27.494Z,28.77
2019-02-22T04:03:00.849Z,28.73
2019-02-22T04:05:34.134Z,28.13
2019-02-22T04:08:08.506Z,29.90
2019-02-22T04:10:41.795Z,30.63
2019-02-22T04:13:15.095Z,25.37
2019-02-22T04:15:48.387Z,28.30
2019-02-22T04:18:21.687Z,27.47
2019-02-22T04:20:54.945Z,28.97
2019-02-22T04:23:28.265Z,30.20
2019-02-22T04:26:01.538Z,27.87
2019-02-22T04:28:34.847Z,29.57
2019-02-22T04:31:08.147Z,28.80
2019-02-22T04:33:41.467Z,29.47
2019-02-22T04:36:14.736Z,29.07
2019-02-22T04:38:48.044Z,29.63
2019-02-22T04:41:21.334Z,29.03
2019-02-22T04:43:54.620Z,27.60
2019-02-22T04:46:27.920Z,28.40
2019-02-22T04:49:01.193Z,29.17
2019-02-22T04:51:34.517Z,28.67
2019-02-22T04:54:07.804Z,30.70
2019-02-22T04:56:41.096Z,29.37
2019-02-22T04:59:14.378Z,28.77
2019-02-22T05:01:47.684Z,28.57
2019-02-22T05:04:20.965Z,30.87
2019-02-22T05:06:54.264Z,30.70
2019-02-22T05:09:27.552Z,28.80
2019-02-22T05:12:10.505Z,28.77
2019-02-22T05:14:35.878Z,29.13
2019-02-22T05:17:09.178Z,30.30
2019-02-22T05:19:42.951Z,27.77
2019-02-22T05:22:16.229Z,29.87
2019-02-22T05:24:49.508Z,29.83
2019-02-22T05:27:24.000Z,30.83
2019-02-22T05:29:57.267Z,30.40
2019-02-22T05:32:30.575Z,30.47
2019-02-22T05:35:03.990Z,30.43
2019-02-22T05:37:37.281Z,30.93
2019-02-22T05:40:10.638Z,29.30
2019-02-22T05:42:43.943Z,30.33
2019-02-22T05:45:17.249Z,28.70
2019-02-22T05:47:50.552Z,30.20
2019-02-22T05:50:23.850Z,31.63
2019-02-22T05:52:57.529Z,31.60
2019-02-22T05:55:30.823Z,30.50
2019-02-22T05:58:04.127Z,32.00
2019-02-22T06:00:37.398Z,32.20
2019-02-22T06:03:10.694Z,32.73
2019-02-22T06:05:44.001Z,33.33
2019-02-22T06:08:17.779Z,32.20
2019-02-22T06:10:51.067Z,33.50
2019-02-22T06:13:24.357Z,33.33
2019-02-22T06:15:57.696Z,37.43
2019-02-22T06:18:30.997Z,35.20
2019-02-22T06:21:04.266Z,37.07
2019-02-22T06:23:37.557Z,35.67
2019-02-22T06:26:10.852Z,38.80
2019-02-22T06:28:44.129Z,35.80
2019-02-22T06:31:17.416Z,36.57
2019-02-22T06:33:50.717Z,35.03
2019-02-22T06:36:24.004Z,38.07
2019-02-22T06:38:57.300Z,44.00
2019-02-22T06:41:30.575Z,43.97
2019-02-22T06:44:04.173Z,42.10
2019-02-22T06:46:37.451Z,42.00
2019-02-22T06:49:10.746Z,39.17
2019-02-22T06:51:44.037Z,37.67
2019-02-22T06:54:17.336Z,34.33
2019-02-22T06:56:50.637Z,34.60
2019-02-22T06:59:23.951Z,33.70
2019-02-22T07:01:57.794Z,34.67
2019-02-22T07:04:31.118Z,33.40
2019-02-22T07:07:04.474Z,31.53
2019-02-22T07:09:37.797Z,32.33
2019-02-22T07:12:12.740Z,31.73
2019-02-22T07:14:46.041Z,33.93
2019-02-22T07:17:19.337Z,32.17
2019-02-22T07:19:52.626Z,32.33
2019-02-22T07:22:25.926Z,31.87
2019-02-22T07:24:59.264Z,32.73
2019-02-22T07:27:32.554Z,33.93
2019-02-22T07:30:08.882Z,32.93
2019-02-22T07:32:42.353Z,33.90
2019-02-22T07:35:15.794Z,33.93
2019-02-22T07:37:49.071Z,34.73
2019-02-22T07:40:22.386Z,34.27
2019-02-22T07:42:55.674Z,36.33
2019-02-22T07:45:29.001Z,35.90
2019-02-22T07:48:02.291Z,33.87
2019-02-22T07:50:36.646Z,34.50
2019-02-22T07:53:09.926Z,34.80
2019-02-22T07:55:43.304Z,34.00
2019-02-22T07:58:16.578Z,34.33
2019-02-22T08:00:49.917Z,32.13
2019-02-22T08:03:23.279Z,32.93
2019-02-22T08:05:56.623Z,32.70
2019-02-22T08:08:29.884Z,33.17
2019-02-22T08:11:03.312Z,32.53
2019-02-22T08:13:36.619Z,32.70
2019-02-22T08:16:09.925Z,31.57
2019-02-22T08:18:43.503Z,32.20
2019-02-22T08:21:16.812Z,31.83
2019-02-22T08:23:50.164Z,34.03
2019-02-22T08:26:23.935Z,33.27
2019-02-22T08:28:57.242Z,34.00
2019-02-22T08:31:30.579Z,33.70
2019-02-22T08:34:03.941Z,33.27
2019-02-22T08:36:38.147Z,34.13
2019-02-22T08:39:12.535Z,33.33
2019-02-22T08:41:45.873Z,33.87
2019-02-22T08:44:19.195Z,33.10
2019-02-22T08:46:52.562Z,33.47
2019-02-22T08:49:25.871Z,31.90
2019-02-22T08:52:00.704Z,32.80
2019-02-22T08:54:34.031Z,29.13
2019-02-22T08:57:07.334Z,29.27
2019-02-22T08:59:40.668Z,29.73
2019-02-22T09:02:13.946Z,28.93
2019-02-22T09:04:47.258Z,29.83
2019-02-22T09:07:20.546Z,27.50
2019-02-22T09:09:53.865Z,27.87
2019-02-22T09:12:27.129Z,27.83
2019-02-22T09:15:00.493Z,26.10
2019-02-22T09:17:33.788Z,24.20
2019-02-22T09:20:09.723Z,24.57
2019-02-22T09:22:43.014Z,24.87
2019-02-22T09:25:16.332Z,26.80
2019-02-22T09:27:49.659Z,25.97
2019-02-22T09:30:22.937Z,25.50
2019-02-22T09:32:56.217Z,25.70
2019-02-22T09:35:29.533Z,25.73
2019-02-22T09:38:04.315Z,22.73
2019-02-22T09:40:37.614Z,22.20
2019-02-22T09:43:11.185Z,21.17
2019-02-22T09:45:44.486Z,20.53
2019-02-22T09:48:17.787Z,20.97
2019-02-22T09:50:51.113Z,20.10
2019-02-22T09:53:24.404Z,19.73
2019-02-22T09:55:57.690Z,19.53
2019-02-22T09:58:31.002Z,18.73
2019-02-22T10:01:04.389Z,17.00
2019-02-22T10:03:37.663Z,16.70
2019-02-22T10:06:10.965Z,16.40
2019-02-22T10:08:44.296Z,14.50
2019-02-22T10:11:18.782Z,15.63
2019-02-22T10:13:52.072Z,16.07
2019-02-22T10:16:27.501Z,16.37
2019-02-22T10:19:00.390Z,17.10
2019-02-22T10:21:33.792Z,15.00
2019-02-22T10:24:07.081Z,15.90
2019-02-22T10:26:40.660Z,14.67
2019-02-22T10:29:13.937Z,15.83
2019-02-22T10:31:47.272Z,13.13
2019-02-22T10:34:20.548Z,14.07
2019-02-22T10:36:53.851Z,14.43
2019-02-22T10:39:27.141Z,12.10
2019-02-22T10:42:00.542Z,10.80
2019-02-22T10:44:33.866Z,11.03
2019-02-22T10:47:07.182Z,10.67
2019-02-22T10:49:40.481Z,10.33
2019-02-22T10:52:13.791Z,9.27
2019-02-22T10:54:47.116Z,9.67
2019-02-22T10:57:20.379Z,10.77
2019-02-22T10:59:53.657Z,11.10
2019-02-22T11:02:26.961Z,10.10
2019-02-22T11:05:00.313Z,8.43
2019-02-22T11:07:33.702Z,8.93
2019-02-22T11:10:09.922Z,6.40
2019-02-22T11:12:43.292Z,5.10
2019-02-22T11:15:16.626Z,3.33
2019-02-22T11:17:49.927Z,6.30
2019-02-22T11:20:23.219Z,5.13
2019-02-22T11:22:56.568Z,3.30
2019-02-22T11:25:29.900Z,2.20
2019-02-22T11:28:03.187Z,2.10
2019-02-22T11:30:36.603Z,1.80
2019-02-22T11:33:10.986Z,1.90
2019-02-22T11:35:44.277Z,2.57
2019-02-22T11:38:17.547Z,2.80
2019-02-22T11:40:50.867Z,2.50
2019-02-22T11:43:24.161Z,3.10
2019-02-22T11:45:57.454Z,2.97
2019-02-22T11:48:30.741Z,3.30
2019-02-22T11:51:04.040Z,3.23
2019-02-22T11:53:37.387Z,3.47
2019-02-22T11:56:11.641Z,3.00
2019-02-22T11:58:44.899Z,3.20
2019-02-22T12:01:18.201Z,3.20
2019-02-22T12:03:51.476Z,3.23
2019-02-22T12:06:24.804Z,2.73
2019-02-22T12:08:58.080Z,3.70
2019-02-22T12:11:31.386Z,3.80
2019-02-22T12:14:04.740Z,3.53
2019-02-22T12:16:38.077Z,3.50
2019-02-22T12:19:11.371Z,4.03
2019-02-22T12:21:44.686Z,3.80
2019-02-22T12:24:17.961Z,3.47
2019-02-22T12:26:51.248Z,3.80
2019-02-22T12:29:24.516Z,3.63
2019-02-22T12:31:57.816Z,3.60
2019-02-22T12:34:32.728Z,3.07
2019-02-22T12:37:06.169Z,3.27
2019-02-22T12:39:39.516Z,3.53
2019-02-22T12:42:12.809Z,3.67
2019-02-22T12:44:46.084Z,3.10
2019-02-22T12:47:19.481Z,3.60
2019-02-22T12:49:52.857Z,3.67
2019-02-22T12:52:26.154Z,3.30
2019-02-22T12:54:59.429Z,3.70
2019-02-22T12:57:32.747Z,3.70
2019-02-22T13:00:12.436Z,3.83
2019-02-22T13:02:45.749Z,3.47
2019-02-22T13:05:21.838Z,3.73
2019-02-22T13:07:55.160Z,4.00
2019-02-22T13:10:28.460Z,3.63
2019-02-22T13:13:01.785Z,3.90
2019-02-22T13:15:35.075Z,3.70
2019-02-22T13:18:08.442Z,3.87
2019-02-22T13:20:41.698Z,4.13
2019-02-22T13:23:14.988Z,4.00
2019-02-22T13:25:49.307Z,4.77
2019-02-22T13:28:22.616Z,4.57
2019-02-22T13:30:55.896Z,4.40
2019-02-22T13:33:29.197Z,4.60
2019-02-22T13:36:02.504Z,4.00
2019-02-22T13:38:35.809Z,4.37
2019-02-22T13:41:09.114Z,4.70
2019-02-22T13:43:42.415Z,4.63
2019-02-22T13:46:15.712Z,4.50
2019-02-22T13:48:49.121Z,5.23
2019-02-22T13:51:22.478Z,5.20
2019-02-22T13:53:55.774Z,4.63
2019-02-22T13:56:30.078Z,4.60
2019-02-22T13:59:03.596Z,4.00
2019-02-22T14:01:36.955Z,3.77
2019-02-22T14:04:10.235Z,3.53
2019-02-22T14:06:43.528Z,3.63
2019-02-22T14:09:16.810Z,3.23
2019-02-22T14:11:50.137Z,3.60
2019-02-22T14:14:23.446Z,3.60
2019-02-22T14:16:56.827Z,3.87
2019-02-22T14:19:30.147Z,3.43
2019-02-22T14:22:04.132Z,3.20
2019-02-22T14:24:37.424Z,3.33
2019-02-22T14:27:10.797Z,4.03
2019-02-22T14:29:44.119Z,3.73
2019-02-22T14:32:17.453Z,3.97
2019-02-22T14:34:50.720Z,4.20
2019-02-22T14:37:24.028Z,4.30
2019-02-22T14:40:03.025Z,4.20
2019-02-22T14:42:32.451Z,4.40
2019-02-22T14:45:08.502Z,3.93
2019-02-22T14:47:41.797Z,4.50
2019-02-22T14:50:18.578Z,6.20
2019-02-22T14:52:51.882Z,5.10
2019-02-22T14:55:25.226Z,5.03
2019-02-22T14:57:58.517Z,5.90
2019-02-22T15:00:32.641Z,5.37
2019-02-22T15:03:05.934Z,5.27
2019-02-22T15:05:39.235Z,5.07
2019-02-22T15:08:12.547Z,5.30
2019-02-22T15:10:45.843Z,4.97
2019-02-22T15:13:19.201Z,5.50
2019-02-22T15:16:03.964Z,5.77
2019-02-22T15:18:37.608Z,5.07
2019-02-22T15:21:10.941Z,5.30
2019-02-22T15:23:44.228Z,5.10
2019-02-22T15:26:17.537Z,5.63
2019-02-22T15:28:50.920Z,6.20
2019-02-22T15:31:24.226Z,6.10
2019-02-22T15:33:57.581Z,5.50
2019-02-22T15:36:30.831Z,8.63
2019-02-22T15:39:05.146Z,7.20
2019-02-22T15:41:38.434Z,5.90
2019-02-22T15:44:12.764Z,5.27
2019-02-22T15:46:46.005Z,5.17
2019-02-22T15:49:19.327Z,5.47
2019-02-22T15:51:52.608Z,5.60
2019-02-22T15:54:25.910Z,7.03
2019-02-22T15:56:59.196Z,6.40
2019-02-22T15:59:32.525Z,5.60
2019-02-22T16:02:06.352Z,5.93
2019-02-22T16:04:45.161Z,5.70
2019-02-22T16:07:18.735Z,6.27
2019-02-22T16:09:52.130Z,5.90
2019-02-22T16:12:25.603Z,5.23
2019-02-22T16:14:59.941Z,5.60
2019-02-22T16:17:33.236Z,5.27
2019-02-22T16:20:08.182Z,4.87
2019-02-22T16:22:41.920Z,5.17
2019-02-22T16:25:19.683Z,5.07
2019-02-22T16:27:50.268Z,5.73
2019-02-22T16:30:26.744Z,5.60
2019-02-22T16:33:00.028Z,5.50
2019-02-22T16:35:33.912Z,5.40
2019-02-22T16:38:07.204Z,5.10
2019-02-22T16:40:40.580Z,5.63
2019-02-22T16:43:13.858Z,5.27
2019-02-22T16:45:47.152Z,5.67
2019-02-22T16:48:20.422Z,5.27
2019-02-22T16:50:53.711Z,5.83
2019-02-22T16:53:27.022Z,5.80
2019-02-22T16:56:00.399Z,6.50
2019-02-22T16:58:33.682Z,6.10
2019-02-22T17:01:07.056Z,6.70
2019-02-22T17:03:40.439Z,6.50
2019-02-22T17:06:13.791Z,6.40
2019-02-22T17:08:47.075Z,7.20
2019-02-22T17:11:21.430Z,7.13
2019-02-22T17:13:54.727Z,8.17
2019-02-22T17:16:28.021Z,7.57
2019-02-22T17:19:02.163Z,8.57
2019-02-22T17:21:35.458Z,11.10
2019-02-22T17:24:08.748Z,10.80
2019-02-22T17:26:42.066Z,10.80
2019-02-22T17:29:15.348Z,9.23
2019-02-22T17:31:48.654Z,10.63
2019-02-22T17:34:21.962Z,10.27
2019-02-22T17:36:55.260Z,9.00
2019-02-22T17:39:28.554Z,9.17
2019-02-22T17:42:01.883Z,8.90
2019-02-22T17:44:35.160Z,11.37
2019-02-22T17:47:10.005Z,12.30
2019-02-22T17:49:43.314Z,10.03
2019-02-22T17:52:19.023Z,7.83
2019-02-22T17:54:52.432Z,7.47
2019-02-22T17:57:25.712Z,8.07
2019-02-22T17:59:59.040Z,7.20
2019-02-22T18:02:33.560Z,7.93
2019-02-22T18:05:08.913Z,8.40
2019-02-22T18:07:42.192Z,8.27
2019-02-22T18:10:15.519Z,7.43
2019-02-22T18:12:52.256Z,7.10
2019-02-22T18:15:25.555Z,7.50
2019-02-22T18:17:58.839Z,7.63
2019-02-22T18:20:33.845Z,8.90
2019-02-22T18:23:07.142Z,9.03
2019-02-22T18:25:40.435Z,9.67
2019-02-22T18:28:13.823Z,8.80
2019-02-22T18:30:47.135Z,8.33
2019-02-22T18:33:20.483Z,9.27
2019-02-22T18:35:55.308Z,10.33
2019-02-22T18:38:28.610Z,10.20
2019-02-22T18:41:01.955Z,8.37
2019-02-22T18:43:35.356Z,9.73
2019-02-22T18:46:08.672Z,10.17
2019-02-22T18:48:41.962Z,10.00
2019-02-22T18:51:15.299Z,9.70
2019-02-22T18:53:48.603Z,9.83
2019-02-22T18:56:21.902Z,9.47
2019-02-22T18:58:55.223Z,9.00
2019-02-22T19:01:28.509Z,8.87
2019-02-22T19:04:01.800Z,8.37
2019-02-22T19:06:35.135Z,7.40
2019-02-22T19:09:08.418Z,7.37
2019-02-22T19:11:41.717Z,7.87
2019-02-22T19:14:15.004Z,8.33
2019-02-22T19:16:48.311Z,8.77
2019-02-22T19:19:21.586Z,8.53
2019-02-22T19:21:54.972Z,9.73
2019-02-22T19:24:28.258Z,9.13
2019-02-22T19:27:01.598Z,7.60
2019-02-22T19:29:34.900Z,7.70
2019-02-22T19:32:08.194Z,7.57
2019-02-22T19:34:41.473Z,7.40
2019-02-22T19:37:14.772Z,6.83
2019-02-22T19:39:48.063Z,7.37
2019-02-22T19:42:22.533Z,7.23
2019-02-22T19:44:55.897Z,7.03
2019-02-22T19:47:29.190Z,6.77
2019-02-22T19:50:02.841Z,7.23
2019-02-22T19:52:36.647Z,7.93
2019-02-22T19:55:15.156Z,7.30
2019-02-22T19:57:48.478Z,7.63
2019-02-22T20:00:21.826Z,7.03
2019-02-22T20:02:55.131Z,6.83
2019-02-22T20:05:28.426Z,6.50
2019-02-22T20:08:01.733Z,6.40
2019-02-22T20:10:35.111Z,6.53
2019-02-22T20:13:09.431Z,6.83
2019-02-22T20:15:42.733Z,6.50
2019-02-22T20:18:16.032Z,7.00
2019-02-22T20:20:49.297Z,7.07
2019-02-22T20:23:22.600Z,7.97
2019-02-22T20:25:55.868Z,7.33
2019-02-22T20:28:29.165Z,7.23
2019-02-22T20:31:02.447Z,7.20
2019-02-22T20:33:35.793Z,8.30
2019-02-22T20:36:09.077Z,8.00
2019-02-22T20:38:42.506Z,8.20
2019-02-22T20:41:15.758Z,7.70
2019-02-22T20:43:49.085Z,8.30
2019-02-22T20:46:22.340Z,8.20
2019-02-22T20:49:00.823Z,7.60
2019-02-22T20:51:31.845Z,7.43
2019-02-22T20:54:05.144Z,7.53
2019-02-22T20:56:38.325Z,8.57
2019-02-22T20:59:11.653Z,7.73
2019-02-22T21:01:44.951Z,8.53
2019-02-22T21:04:18.278Z,8.63
2019-02-22T21:06:51.542Z,8.37
2019-02-22T21:09:24.870Z,8.73
2019-02-22T21:11:58.186Z,7.00
2019-02-22T21:14:31.520Z,8.27
2019-02-22T21:17:05.648Z,6.50
2019-02-22T21:19:38.927Z,5.47
2019-02-22T21:22:12.220Z,6.07
2019-02-22T21:24:45.513Z,4.77
2019-02-22T21:27:18.893Z,5.50
2019-02-22T21:29:52.239Z,5.33
2019-02-22T21:32:25.533Z,5.43
2019-02-22T21:34:58.838Z,4.80
2019-02-22T21:37:32.134Z,4.77
2019-02-22T21:40:08.167Z,5.40
2019-02-22T21:42:41.596Z,4.30
2019-02-22T21:45:16.036Z,4.53
2019-02-22T21:47:54.671Z,4.17
2019-02-22T21:50:24.345Z,3.87
2019-02-22T21:52:57.697Z,4.07
2019-02-22T21:55:31.074Z,4.33
2019-02-22T21:58:04.406Z,4.60
2019-02-22T22:00:37.821Z,4.30
2019-02-22T22:03:11.113Z,5.20
2019-02-22T22:05:44.384Z,4.50
2019-02-22T22:08:17.685Z,4.40
2019-02-22T22:10:50.991Z,4.20
2019-02-22T22:13:24.306Z,4.40
2019-02-22T22:15:57.585Z,4.50
2019-02-22T22:18:38.412Z,5.07
2019-02-22T22:21:05.918Z,4.90
2019-02-22T22:23:39.234Z,4.50
2019-02-22T22:26:12.516Z,5.07
2019-02-22T22:28:45.828Z,4.77
2019-02-22T22:31:19.116Z,5.17
2019-02-22T22:33:52.434Z,5.13
2019-02-22T22:36:25.720Z,5.10
2019-02-22T22:38:59.026Z,5.30
2019-02-22T22:41:32.296Z,4.83
2019-02-22T22:44:06.708Z,5.07
2019-02-22T22:46:39.986Z,4.53
2019-02-22T22:49:13.278Z,5.20
2019-02-22T22:51:46.599Z,5.70
2019-02-22T22:54:19.928Z,6.13
2019-02-22T22:56:53.202Z,5.70
2019-02-22T22:59:26.499Z,5.33
2019-02-22T23:01:59.987Z,5.07
2019-02-22T23:04:33.273Z,5.20
2019-02-22T23:07:06.612Z,6.07
2019-02-22T23:09:39.957Z,5.23
2019-02-22T23:12:13.231Z,5.50
2019-02-22T23:14:46.530Z,5.60
2019-02-22T23:17:19.884Z,5.63
2019-02-22T23:19:53.327Z,6.30
2019-02-22T23:22:26.578Z,5.53
2019-02-22T23:24:59.872Z,5.37
2019-02-22T23:27:33.161Z,5.40
2019-02-22T23:30:08.000Z,5.47
2019-02-22T23:32:41.305Z,6.73
2019-02-22T23:35:14.641Z,6.37
2019-02-22T23:37:47.917Z,6.90
2019-02-22T23:40:21.231Z,7.20
2019-02-22T23:42:54.509Z,6.90
2019-02-22T23:45:27.829Z,6.93
2019-02-22T23:48:01.115Z,6.93
2019-02-22T23:50:34.423Z,7.17
2019-02-22T23:53:07.692Z,7.43
2019-02-22T23:55:41.023Z,7.40
2019-02-22T23:58:14.319Z,7.90
